Weather at Stockholm-Arlanda Airport

Public forecast

Using degrees Celsius for public forecast. Weather courtesy of forecast.io.

Current aviation weather report (METAR) for Stockholm-Arlanda Airport

Retrieved 2020/11/30 12:20 UTC (21 minutes ago):

ESSA 301220Z 18008KT 1600 BR OVC002 M01/M01 Q1015 R01R/19//95 R08/19//95 TEMPO BKN005

Aviation forecast (TAF) for Stockholm-Arlanda Airport

Retrieved 2020/11/30 12:00 UTC (41 minutes ago):

TAF ESSA 301130Z 3012/0112 23005KT 9999 BKN005 PROB40 3012/3015 2000 BR BKN004 PROB40 3015/3020 2500 -SN -FZDZ BKN010 PROB40 3020/0105 SCT004 BKN020 PROB40 0105/0112 2000 SNRA BKN004